sensor_id;sensor_type;location;lat;lon;timestamp;temperature;humidity
4215;DHT22;2121;48.062;7.850;2023-11-21T00:00:21;8.50;99.90
4215;DHT22;2121;48.062;7.850;2023-11-21T00:02:47;8.50;99.90
4215;DHT22;2121;48.062;7.850;2023-11-21T00:05:13;8.40;99.90
4215;DHT22;2121;48.062;7.850;2023-11-21T00:07:40;8.50;99.90
4215;DHT22;2121;48.062;7.850;2023-11-21T00:10:07;8.50;99.90
4215;DHT22;2121;48.062;7.850;2023-11-21T00:12:35;8.50;99.90
4215;DHT22;2121;48.062;7.850;2023-11-21T00:15:01;8.50;99.90
4215;DHT22;2121;48.062;7.850;2023-11-21T00:17:27;8.50;99.90
4215;DHT22;2121;48.062;7.850;2023-11-21T00:19:53;8.50;99.90
4215;DHT22;2121;48.062;7.850;2023-11-21T00:22:19;8.50;99.90
4215;DHT22;2121;48.062;7.850;2023-11-21T00:24:46;8.40;99.90
4215;DHT22;2121;48.062;7.850;2023-11-21T00:27:12;8.40;99.90
4215;DHT22;2121;48.062;7.850;2023-11-21T00:29:38;8.50;99.90
4215;DHT22;2121;48.062;7.850;2023-11-21T00:32:05;8.50;99.90
4215;DHT22;2121;48.062;7.850;2023-11-21T00:34:31;8.50;99.90
4215;DHT22;2121;48.062;7.850;2023-11-21T00:36:58;8.50;99.90
4215;DHT22;2121;48.062;7.850;2023-11-21T00:39:24;8.40;99.90
4215;DHT22;2121;48.062;7.850;2023-11-21T00:41:51;8.40;99.90
4215;DHT22;2121;48.062;7.850;2023-11-21T00:44:17;8.50;99.90
4215;DHT22;2121;48.062;7.850;2023-11-21T00:46:43;8.40;99.90
4215;DHT22;2121;48.062;7.850;2023-11-21T00:49:08;8.40;99.90
4215;DHT22;2121;48.062;7.850;2023-11-21T00:51:34;8.40;99.90
4215;DHT22;2121;48.062;7.850;2023-11-21T00:54:01;8.40;99.90
4215;DHT22;2121;48.062;7.850;2023-11-21T00:56:27;8.40;99.90
4215;DHT22;2121;48.062;7.850;2023-11-21T00:58:53;8.40;99.90
4215;DHT22;2121;48.062;7.850;2023-11-21T01:01:20;8.40;99.90
4215;DHT22;2121;48.062;7.850;2023-11-21T01:03:47;8.40;99.90
4215;DHT22;2121;48.062;7.850;2023-11-21T01:06:14;8.40;99.90
4215;DHT22;2121;48.062;7.850;2023-11-21T01:08:41;8.40;99.90
4215;DHT22;2121;48.062;7.850;2023-11-21T01:11:06;8.50;99.90
4215;DHT22;2121;48.062;7.850;2023-11-21T01:13:34;8.40;99.90
4215;DHT22;2121;48.062;7.850;2023-11-21T01:16:01;8.40;99.90
4215;DHT22;2121;48.062;7.850;2023-11-21T01:18:26;8.40;99.90
4215;DHT22;2121;48.062;7.850;2023-11-21T01:20:52;8.40;99.90
4215;DHT22;2121;48.062;7.850;2023-11-21T01:23:19;8.40;99.90
4215;DHT22;2121;48.062;7.850;2023-11-21T01:25:46;8.40;99.90
4215;DHT22;2121;48.062;7.850;2023-11-21T01:28:12;8.40;99.90
4215;DHT22;2121;48.062;7.850;2023-11-21T01:30:37;8.40;99.90
4215;DHT22;2121;48.062;7.850;2023-11-21T01:33:03;8.40;99.90
4215;DHT22;2121;48.062;7.850;2023-11-21T01:35:29;8.40;99.90
4215;DHT22;2121;48.062;7.850;2023-11-21T01:37:55;8.40;99.90
4215;DHT22;2121;48.062;7.850;2023-11-21T01:40:21;8.40;99.90
4215;DHT22;2121;48.062;7.850;2023-11-21T01:42:47;8.40;99.90
4215;DHT22;2121;48.062;7.850;2023-11-21T01:45:13;8.40;99.90
4215;DHT22;2121;48.062;7.850;2023-11-21T01:47:41;8.50;99.90
4215;DHT22;2121;48.062;7.850;2023-11-21T01:50:09;8.50;99.90
4215;DHT22;2121;48.062;7.850;2023-11-21T01:52:38;8.50;99.90
4215;DHT22;2121;48.062;7.850;2023-11-21T01:55:07;8.40;99.90
4215;DHT22;2121;48.062;7.850;2023-11-21T01:57:37;8.40;99.90
4215;DHT22;2121;48.062;7.850;2023-11-21T02:00:04;8.50;99.90
4215;DHT22;2121;48.062;7.850;2023-11-21T02:02:42;8.50;99.90
4215;DHT22;2121;48.062;7.850;2023-11-21T02:05:16;8.60;99.90
4215;DHT22;2121;48.062;7.850;2023-11-21T02:07:45;8.60;99.90
4215;DHT22;2121;48.062;7.850;2023-11-21T02:10:14;8.70;99.90
4215;DHT22;2121;48.062;7.850;2023-11-21T02:12:41;8.70;99.90
4215;DHT22;2121;48.062;7.850;2023-11-21T02:15:09;8.70;99.90
4215;DHT22;2121;48.062;7.850;2023-11-21T02:17:43;8.70;99.90
4215;DHT22;2121;48.062;7.850;2023-11-21T02:20:13;8.70;99.90
4215;DHT22;2121;48.062;7.850;2023-11-21T02:22:53;8.70;99.90
4215;DHT22;2121;48.062;7.850;2023-11-21T02:25:30;8.70;99.90
4215;DHT22;2121;48.062;7.850;2023-11-21T02:28:03;8.70;99.90
4215;DHT22;2121;48.062;7.850;2023-11-21T02:30:30;8.60;99.90
4215;DHT22;2121;48.062;7.850;2023-11-21T02:32:59;8.70;99.90
4215;DHT22;2121;48.062;7.850;2023-11-21T02:35:26;8.70;99.90
4215;DHT22;2121;48.062;7.850;2023-11-21T02:37:52;8.70;99.90
4215;DHT22;2121;48.062;7.850;2023-11-21T02:40:18;8.70;99.90
4215;DHT22;2121;48.062;7.850;2023-11-21T02:42:46;8.60;99.90
4215;DHT22;2121;48.062;7.850;2023-11-21T02:45:14;8.60;99.90
4215;DHT22;2121;48.062;7.850;2023-11-21T02:47:44;8.70;99.90
4215;DHT22;2121;48.062;7.850;2023-11-21T02:50:10;8.70;99.90
4215;DHT22;2121;48.062;7.850;2023-11-21T02:52:36;8.70;99.90
4215;DHT22;2121;48.062;7.850;2023-11-21T02:55:03;8.70;99.90
4215;DHT22;2121;48.062;7.850;2023-11-21T02:57:29;8.70;99.90
4215;DHT22;2121;48.062;7.850;2023-11-21T02:59:56;8.60;99.90
4215;DHT22;2121;48.062;7.850;2023-11-21T03:02:21;8.60;99.90
4215;DHT22;2121;48.062;7.850;2023-11-21T03:04:48;8.60;99.90
4215;DHT22;2121;48.062;7.850;2023-11-21T03:07:15;8.60;99.90
4215;DHT22;2121;48.062;7.850;2023-11-21T03:09:41;8.70;99.90
4215;DHT22;2121;48.062;7.850;2023-11-21T03:12:07;8.70;99.90
4215;DHT22;2121;48.062;7.850;2023-11-21T03:14:34;8.70;99.90
4215;DHT22;2121;48.062;7.850;2023-11-21T03:17:00;8.70;99.90
4215;DHT22;2121;48.062;7.850;2023-11-21T03:19:25;8.70;99.90
4215;DHT22;2121;48.062;7.850;2023-11-21T03:21:51;8.70;99.90
4215;DHT22;2121;48.062;7.850;2023-11-21T03:24:18;8.70;99.90
4215;DHT22;2121;48.062;7.850;2023-11-21T03:26:45;8.70;99.90
4215;DHT22;2121;48.062;7.850;2023-11-21T03:29:12;8.80;99.90
4215;DHT22;2121;48.062;7.850;2023-11-21T03:31:38;8.80;99.90
4215;DHT22;2121;48.062;7.850;2023-11-21T03:34:04;8.80;99.90
4215;DHT22;2121;48.062;7.850;2023-11-21T03:36:30;8.80;99.90
4215;DHT22;2121;48.062;7.850;2023-11-21T03:38:56;8.80;99.90
4215;DHT22;2121;48.062;7.850;2023-11-21T03:41:21;8.80;99.90
4215;DHT22;2121;48.062;7.850;2023-11-21T03:43:47;8.70;99.90
4215;DHT22;2121;48.062;7.850;2023-11-21T03:46:13;8.80;99.90
4215;DHT22;2121;48.062;7.850;2023-11-21T03:48:39;8.80;99.90
4215;DHT22;2121;48.062;7.850;2023-11-21T03:51:05;8.70;99.90
4215;DHT22;2121;48.062;7.850;2023-11-21T03:53:31;8.70;99.90
4215;DHT22;2121;48.062;7.850;2023-11-21T03:55:57;8.70;99.90
4215;DHT22;2121;48.062;7.850;2023-11-21T03:58:23;8.60;99.90
4215;DHT22;2121;48.062;7.850;2023-11-21T04:00:49;8.40;99.90
4215;DHT22;2121;48.062;7.850;2023-11-21T04:03:15;8.40;99.90
4215;DHT22;2121;48.062;7.850;2023-11-21T04:05:41;8.30;99.90
4215;DHT22;2121;48.062;7.850;2023-11-21T04:08:07;8.30;99.90
4215;DHT22;2121;48.062;7.850;2023-11-21T04:10:32;8.20;99.90
4215;DHT22;2121;48.062;7.850;2023-11-21T04:12:58;8.20;99.90
4215;DHT22;2121;48.062;7.850;2023-11-21T04:15:25;8.10;99.90
4215;DHT22;2121;48.062;7.850;2023-11-21T04:17:51;8.20;99.90
4215;DHT22;2121;48.062;7.850;2023-11-21T04:20:17;8.00;99.90
4215;DHT22;2121;48.062;7.850;2023-11-21T04:22:44;8.00;99.90
4215;DHT22;2121;48.062;7.850;2023-11-21T04:25:11;8.00;99.90
4215;DHT22;2121;48.062;7.850;2023-11-21T04:27:39;8.00;99.90
4215;DHT22;2121;48.062;7.850;2023-11-21T04:30:06;8.10;99.90
4215;DHT22;2121;48.062;7.850;2023-11-21T04:32:32;8.00;99.90
4215;DHT22;2121;48.062;7.850;2023-11-21T04:34:58;8.10;99.90
4215;DHT22;2121;48.062;7.850;2023-11-21T04:37:24;8.20;99.90
4215;DHT22;2121;48.062;7.850;2023-11-21T04:39:50;8.20;99.90
4215;DHT22;2121;48.062;7.850;2023-11-21T04:42:16;8.20;99.90
4215;DHT22;2121;48.062;7.850;2023-11-21T04:44:41;8.20;99.90
4215;DHT22;2121;48.062;7.850;2023-11-21T04:47:07;8.20;99.90
4215;DHT22;2121;48.062;7.850;2023-11-21T04:49:33;8.20;99.90
4215;DHT22;2121;48.062;7.850;2023-11-21T04:51:59;8.30;99.90
4215;DHT22;2121;48.062;7.850;2023-11-21T04:54:26;8.20;99.90
4215;DHT22;2121;48.062;7.850;2023-11-21T04:56:52;8.20;99.90
4215;DHT22;2121;48.062;7.850;2023-11-21T04:59:18;8.20;99.90
4215;DHT22;2121;48.062;7.850;2023-11-21T05:01:44;8.20;99.90
4215;DHT22;2121;48.062;7.850;2023-11-21T05:04:09;8.20;99.90
4215;DHT22;2121;48.062;7.850;2023-11-21T05:06:35;8.20;99.90
4215;DHT22;2121;48.062;7.850;2023-11-21T05:09:01;8.20;99.90
4215;DHT22;2121;48.062;7.850;2023-11-21T05:11:27;8.10;99.90
4215;DHT22;2121;48.062;7.850;2023-11-21T05:13:54;8.20;99.90
4215;DHT22;2121;48.062;7.850;2023-11-21T05:16:25;8.20;99.90
4215;DHT22;2121;48.062;7.850;2023-11-21T05:18:53;8.10;99.90
4215;DHT22;2121;48.062;7.850;2023-11-21T05:21:18;8.10;99.90
4215;DHT22;2121;48.062;7.850;2023-11-21T05:23:46;8.10;99.90
4215;DHT22;2121;48.062;7.850;2023-11-21T05:26:12;8.10;99.90
4215;DHT22;2121;48.062;7.850;2023-11-21T05:28:37;8.00;99.90
4215;DHT22;2121;48.062;7.850;2023-11-21T05:31:03;7.90;99.90
4215;DHT22;2121;48.062;7.850;2023-11-21T05:33:29;8.00;99.90
4215;DHT22;2121;48.062;7.850;2023-11-21T05:35:55;8.00;99.90
4215;DHT22;2121;48.062;7.850;2023-11-21T05:38:20;7.90;99.90
4215;DHT22;2121;48.062;7.850;2023-11-21T05:40:47;7.90;99.90
4215;DHT22;2121;48.062;7.850;2023-11-21T05:43:13;7.90;99.90
4215;DHT22;2121;48.062;7.850;2023-11-21T05:45:38;7.90;99.90
4215;DHT22;2121;48.062;7.850;2023-11-21T05:48:04;7.80;99.90
4215;DHT22;2121;48.062;7.850;2023-11-21T05:50:31;7.90;99.90
4215;DHT22;2121;48.062;7.850;2023-11-21T05:52:57;7.80;99.90
4215;DHT22;2121;48.062;7.850;2023-11-21T05:55:25;7.80;99.90
4215;DHT22;2121;48.062;7.850;2023-11-21T05:57:51;7.80;99.90
4215;DHT22;2121;48.062;7.850;2023-11-21T06:00:17;7.80;99.90
4215;DHT22;2121;48.062;7.850;2023-11-21T06:02:50;7.80;99.90
4215;DHT22;2121;48.062;7.850;2023-11-21T06:05:18;7.80;99.90
4215;DHT22;2121;48.062;7.850;2023-11-21T06:07:49;7.80;99.90
4215;DHT22;2121;48.062;7.850;2023-11-21T06:10:15;7.80;99.90
4215;DHT22;2121;48.062;7.850;2023-11-21T06:12:43;7.80;99.90
4215;DHT22;2121;48.062;7.850;2023-11-21T06:15:10;7.70;99.90
4215;DHT22;2121;48.062;7.850;2023-11-21T06:17:39;7.70;99.90
4215;DHT22;2121;48.062;7.850;2023-11-21T06:20:06;7.70;99.90
4215;DHT22;2121;48.062;7.850;2023-11-21T06:22:43;7.70;99.90
4215;DHT22;2121;48.062;7.850;2023-11-21T06:25:10;7.70;99.90
4215;DHT22;2121;48.062;7.850;2023-11-21T06:27:39;7.70;99.90
4215;DHT22;2121;48.062;7.850;2023-11-21T06:30:06;7.70;99.90
4215;DHT22;2121;48.062;7.850;2023-11-21T06:32:34;7.60;99.90
4215;DHT22;2121;48.062;7.850;2023-11-21T06:35:04;7.60;99.90
4215;DHT22;2121;48.062;7.850;2023-11-21T06:37:31;7.60;99.90
4215;DHT22;2121;48.062;7.850;2023-11-21T06:39:58;7.60;99.90
4215;DHT22;2121;48.062;7.850;2023-11-21T06:42:25;7.70;99.90
4215;DHT22;2121;48.062;7.850;2023-11-21T06:44:51;7.80;99.90
4215;DHT22;2121;48.062;7.850;2023-11-21T06:47:17;7.70;99.90
4215;DHT22;2121;48.062;7.850;2023-11-21T06:49:45;7.80;99.90
4215;DHT22;2121;48.062;7.850;2023-11-21T06:52:13;7.70;99.90
4215;DHT22;2121;48.062;7.850;2023-11-21T06:54:39;7.80;99.90
4215;DHT22;2121;48.062;7.850;2023-11-21T06:57:05;7.70;99.90
4215;DHT22;2121;48.062;7.850;2023-11-21T06:59:31;7.80;99.90
4215;DHT22;2121;48.062;7.850;2023-11-21T07:01:57;7.80;99.90
4215;DHT22;2121;48.062;7.850;2023-11-21T07:04:22;7.80;99.90
4215;DHT22;2121;48.062;7.850;2023-11-21T07:06:49;7.90;99.90
4215;DHT22;2121;48.062;7.850;2023-11-21T07:09:15;7.80;99.90
4215;DHT22;2121;48.062;7.850;2023-11-21T07:11:41;7.80;99.90
4215;DHT22;2121;48.062;7.850;2023-11-21T07:14:07;7.90;99.90
4215;DHT22;2121;48.062;7.850;2023-11-21T07:16:35;7.90;99.90
4215;DHT22;2121;48.062;7.850;2023-11-21T07:19:03;7.80;99.90
4215;DHT22;2121;48.062;7.850;2023-11-21T07:21:35;7.90;99.90
4215;DHT22;2121;48.062;7.850;2023-11-21T07:24:02;8.00;99.90
4215;DHT22;2121;48.062;7.850;2023-11-21T07:26:28;8.00;99.90
4215;DHT22;2121;48.062;7.850;2023-11-21T07:28:54;8.00;99.90
4215;DHT22;2121;48.062;7.850;2023-11-21T07:31:21;8.10;99.90
4215;DHT22;2121;48.062;7.850;2023-11-21T07:33:48;8.10;99.90
4215;DHT22;2121;48.062;7.850;2023-11-21T07:36:15;8.10;99.90
4215;DHT22;2121;48.062;7.850;2023-11-21T07:38:42;8.20;99.90
4215;DHT22;2121;48.062;7.850;2023-11-21T07:41:08;8.20;99.90
4215;DHT22;2121;48.062;7.850;2023-11-21T07:43:35;8.20;99.90
4215;DHT22;2121;48.062;7.850;2023-11-21T07:46:04;8.20;99.90
4215;DHT22;2121;48.062;7.850;2023-11-21T07:48:30;8.30;99.90
4215;DHT22;2121;48.062;7.850;2023-11-21T07:50:57;8.30;99.90
4215;DHT22;2121;48.062;7.850;2023-11-21T07:53:26;8.30;99.90
4215;DHT22;2121;48.062;7.850;2023-11-21T07:55:54;8.30;99.90
4215;DHT22;2121;48.062;7.850;2023-11-21T07:58:20;8.50;99.90
4215;DHT22;2121;48.062;7.850;2023-11-21T08:00:46;8.50;99.90
4215;DHT22;2121;48.062;7.850;2023-11-21T08:03:13;8.40;99.90
4215;DHT22;2121;48.062;7.850;2023-11-21T08:05:39;8.40;99.90
4215;DHT22;2121;48.062;7.850;2023-11-21T08:08:05;8.50;99.90
4215;DHT22;2121;48.062;7.850;2023-11-21T08:10:31;8.60;99.90
4215;DHT22;2121;48.062;7.850;2023-11-21T08:12:57;8.70;99.90
4215;DHT22;2121;48.062;7.850;2023-11-21T08:15:24;8.80;99.90
4215;DHT22;2121;48.062;7.850;2023-11-21T08:17:49;8.60;99.90
4215;DHT22;2121;48.062;7.850;2023-11-21T08:20:15;8.60;99.90
4215;DHT22;2121;48.062;7.850;2023-11-21T08:22:44;8.50;99.90
4215;DHT22;2121;48.062;7.850;2023-11-21T08:25:11;8.40;99.90
4215;DHT22;2121;48.062;7.850;2023-11-21T08:27:36;8.40;99.90
4215;DHT22;2121;48.062;7.850;2023-11-21T08:30:03;8.40;99.90
4215;DHT22;2121;48.062;7.850;2023-11-21T08:32:29;8.30;99.90
4215;DHT22;2121;48.062;7.850;2023-11-21T08:34:58;8.40;99.90
4215;DHT22;2121;48.062;7.850;2023-11-21T08:37:25;8.60;99.90
4215;DHT22;2121;48.062;7.850;2023-11-21T08:39:53;8.90;99.90
4215;DHT22;2121;48.062;7.850;2023-11-21T08:42:19;9.20;99.90
4215;DHT22;2121;48.062;7.850;2023-11-21T08:44:45;9.30;99.90
4215;DHT22;2121;48.062;7.850;2023-11-21T08:47:11;9.60;99.90
4215;DHT22;2121;48.062;7.850;2023-11-21T08:49:38;9.70;99.90
4215;DHT22;2121;48.062;7.850;2023-11-21T08:52:04;9.90;99.90
4215;DHT22;2121;48.062;7.850;2023-11-21T08:54:31;9.90;99.90
4215;DHT22;2121;48.062;7.850;2023-11-21T08:56:56;9.90;99.90
4215;DHT22;2121;48.062;7.850;2023-11-21T08:59:24;9.80;99.90
4215;DHT22;2121;48.062;7.850;2023-11-21T09:01:50;9.70;99.90
4215;DHT22;2121;48.062;7.850;2023-11-21T09:04:16;9.70;99.90
4215;DHT22;2121;48.062;7.850;2023-11-21T09:06:42;9.60;99.90
4215;DHT22;2121;48.062;7.850;2023-11-21T09:09:08;9.70;99.90
4215;DHT22;2121;48.062;7.850;2023-11-21T09:11:36;9.70;99.90
4215;DHT22;2121;48.062;7.850;2023-11-21T09:14:03;9.70;99.90
4215;DHT22;2121;48.062;7.850;2023-11-21T09:16:29;9.80;99.90
4215;DHT22;2121;48.062;7.850;2023-11-21T09:18:55;9.70;99.90
4215;DHT22;2121;48.062;7.850;2023-11-21T09:21:20;9.90;99.90
4215;DHT22;2121;48.062;7.850;2023-11-21T09:23:47;10.00;99.90
4215;DHT22;2121;48.062;7.850;2023-11-21T09:26:13;10.00;99.90
4215;DHT22;2121;48.062;7.850;2023-11-21T09:28:43;10.10;99.90
4215;DHT22;2121;48.062;7.850;2023-11-21T09:31:13;10.40;99.90
4215;DHT22;2121;48.062;7.850;2023-11-21T09:33:44;10.30;99.90
4215;DHT22;2121;48.062;7.850;2023-11-21T09:36:13;10.30;99.90
4215;DHT22;2121;48.062;7.850;2023-11-21T09:38:40;10.20;99.90
4215;DHT22;2121;48.062;7.850;2023-11-21T09:41:15;10.10;99.90
4215;DHT22;2121;48.062;7.850;2023-11-21T09:43:46;9.90;99.90
4215;DHT22;2121;48.062;7.850;2023-11-21T09:46:13;9.60;99.90
4215;DHT22;2121;48.062;7.850;2023-11-21T09:48:46;9.40;99.90
4215;DHT22;2121;48.062;7.850;2023-11-21T09:51:19;9.30;99.90
4215;DHT22;2121;48.062;7.850;2023-11-21T09:53:50;9.20;99.90
4215;DHT22;2121;48.062;7.850;2023-11-21T09:56:18;9.20;99.90
4215;DHT22;2121;48.062;7.850;2023-11-21T09:58:51;9.30;99.90
4215;DHT22;2121;48.062;7.850;2023-11-21T10:01:19;9.40;99.90
4215;DHT22;2121;48.062;7.850;2023-11-21T10:03:45;9.60;99.90
4215;DHT22;2121;48.062;7.850;2023-11-21T10:06:13;9.60;99.90
4215;DHT22;2121;48.062;7.850;2023-11-21T10:08:41;9.60;99.90
4215;DHT22;2121;48.062;7.850;2023-11-21T10:11:08;9.90;99.90
4215;DHT22;2121;48.062;7.850;2023-11-21T10:13:38;9.60;99.90
4215;DHT22;2121;48.062;7.850;2023-11-21T10:16:07;9.60;99.90
4215;DHT22;2121;48.062;7.850;2023-11-21T10:18:33;9.60;99.90
4215;DHT22;2121;48.062;7.850;2023-11-21T10:21:00;9.70;99.90
4215;DHT22;2121;48.062;7.850;2023-11-21T10:23:26;9.80;99.90
4215;DHT22;2121;48.062;7.850;2023-11-21T10:25:53;9.80;99.90
4215;DHT22;2121;48.062;7.850;2023-11-21T10:28:20;9.70;99.90
4215;DHT22;2121;48.062;7.850;2023-11-21T10:30:46;9.50;99.90
4215;DHT22;2121;48.062;7.850;2023-11-21T10:33:12;9.50;99.90
4215;DHT22;2121;48.062;7.850;2023-11-21T10:38:07;9.40;99.90
4215;DHT22;2121;48.062;7.850;2023-11-21T10:40:38;9.20;99.90
4215;DHT22;2121;48.062;7.850;2023-11-21T10:43:11;9.10;99.90
4215;DHT22;2121;48.062;7.850;2023-11-21T10:45:38;9.20;99.90
4215;DHT22;2121;48.062;7.850;2023-11-21T10:48:14;9.20;99.90
4215;DHT22;2121;48.062;7.850;2023-11-21T10:50:45;9.30;99.90
4215;DHT22;2121;48.062;7.850;2023-11-21T10:53:12;9.60;99.90
4215;DHT22;2121;48.062;7.850;2023-11-21T10:55:38;9.70;99.90
4215;DHT22;2121;48.062;7.850;2023-11-21T10:58:04;9.70;99.90
4215;DHT22;2121;48.062;7.850;2023-11-21T11:00:32;9.70;99.90
4215;DHT22;2121;48.062;7.850;2023-11-21T11:02:59;9.60;99.90
4215;DHT22;2121;48.062;7.850;2023-11-21T11:05:27;9.60;99.90
4215;DHT22;2121;48.062;7.850;2023-11-21T11:08:08;9.50;99.90
4215;DHT22;2121;48.062;7.850;2023-11-21T11:10:37;9.20;99.90
4215;DHT22;2121;48.062;7.850;2023-11-21T11:13:04;9.10;99.90
4215;DHT22;2121;48.062;7.850;2023-11-21T11:15:32;9.10;99.90
4215;DHT22;2121;48.062;7.850;2023-11-21T11:17:59;8.90;99.90
4215;DHT22;2121;48.062;7.850;2023-11-21T11:20:35;8.90;99.90
4215;DHT22;2121;48.062;7.850;2023-11-21T11:23:41;9.10;99.90
4215;DHT22;2121;48.062;7.850;2023-11-21T11:34:56;9.00;99.90
4215;DHT22;2121;48.062;7.850;2023-11-21T11:37:24;9.00;99.90
4215;DHT22;2121;48.062;7.850;2023-11-21T11:39:51;8.80;99.90
4215;DHT22;2121;48.062;7.850;2023-11-21T11:42:21;8.60;99.90
4215;DHT22;2121;48.062;7.850;2023-11-21T11:44:50;8.60;99.90
4215;DHT22;2121;48.062;7.850;2023-11-21T11:47:27;8.60;99.90
4215;DHT22;2121;48.062;7.850;2023-11-21T11:52:47;8.60;99.90
4215;DHT22;2121;48.062;7.850;2023-11-21T11:55:15;8.50;99.90
4215;DHT22;2121;48.062;7.850;2023-11-21T11:57:48;8.60;99.90
4215;DHT22;2121;48.062;7.850;2023-11-21T12:00:19;8.60;99.90
4215;DHT22;2121;48.062;7.850;2023-11-21T12:02:48;8.60;99.90
4215;DHT22;2121;48.062;7.850;2023-11-21T12:05:16;8.80;99.90
4215;DHT22;2121;48.062;7.850;2023-11-21T12:07:51;8.80;99.90
4215;DHT22;2121;48.062;7.850;2023-11-21T12:10:29;8.70;99.90
4215;DHT22;2121;48.062;7.850;2023-11-21T12:12:59;8.80;99.90
4215;DHT22;2121;48.062;7.850;2023-11-21T12:15:27;8.90;99.90
4215;DHT22;2121;48.062;7.850;2023-11-21T12:17:56;8.80;99.90
4215;DHT22;2121;48.062;7.850;2023-11-21T12:20:23;8.70;99.90
4215;DHT22;2121;48.062;7.850;2023-11-21T12:22:52;8.60;99.90
4215;DHT22;2121;48.062;7.850;2023-11-21T12:25:23;8.60;99.90
4215;DHT22;2121;48.062;7.850;2023-11-21T12:27:54;8.50;99.90
4215;DHT22;2121;48.062;7.850;2023-11-21T12:30:24;8.60;99.90
4215;DHT22;2121;48.062;7.850;2023-11-21T12:32:54;8.60;99.90
4215;DHT22;2121;48.062;7.850;2023-11-21T12:35:31;8.60;99.90
4215;DHT22;2121;48.062;7.850;2023-11-21T12:38:02;8.70;99.90
4215;DHT22;2121;48.062;7.850;2023-11-21T12:40:29;8.70;99.90
4215;DHT22;2121;48.062;7.850;2023-11-21T12:42:57;8.70;99.90
4215;DHT22;2121;48.062;7.850;2023-11-21T12:45:25;8.80;99.90
4215;DHT22;2121;48.062;7.850;2023-11-21T12:48:00;8.80;99.90
4215;DHT22;2121;48.062;7.850;2023-11-21T12:50:30;8.70;99.90
4215;DHT22;2121;48.062;7.850;2023-11-21T12:53:08;8.80;99.90
4215;DHT22;2121;48.062;7.850;2023-11-21T12:55:43;8.90;99.90
4215;DHT22;2121;48.062;7.850;2023-11-21T12:58:15;9.20;99.90
4215;DHT22;2121;48.062;7.850;2023-11-21T13:00:48;9.40;99.90
4215;DHT22;2121;48.062;7.850;2023-11-21T13:03:17;9.50;99.90
4215;DHT22;2121;48.062;7.850;2023-11-21T13:05:47;9.50;99.90
4215;DHT22;2121;48.062;7.850;2023-11-21T13:08:16;9.30;99.90
4215;DHT22;2121;48.062;7.850;2023-11-21T13:10:45;9.30;99.90
4215;DHT22;2121;48.062;7.850;2023-11-21T13:13:13;9.50;99.90
4215;DHT22;2121;48.062;7.850;2023-11-21T13:15:49;9.50;99.90
4215;DHT22;2121;48.062;7.850;2023-11-21T13:18:16;9.60;99.90
4215;DHT22;2121;48.062;7.850;2023-11-21T13:20:43;9.60;99.90
4215;DHT22;2121;48.062;7.850;2023-11-21T13:23:10;9.50;99.90
4215;DHT22;2121;48.062;7.850;2023-11-21T13:25:41;9.50;99.90
4215;DHT22;2121;48.062;7.850;2023-11-21T13:28:08;9.60;99.90
4215;DHT22;2121;48.062;7.850;2023-11-21T13:30:35;9.90;99.90
4215;DHT22;2121;48.062;7.850;2023-11-21T13:33:02;10.10;99.90
4215;DHT22;2121;48.062;7.850;2023-11-21T13:35:33;10.20;99.90
4215;DHT22;2121;48.062;7.850;2023-11-21T13:38:14;10.10;99.90
4215;DHT22;2121;48.062;7.850;2023-11-21T13:40:49;10.00;99.90
4215;DHT22;2121;48.062;7.850;2023-11-21T13:43:20;9.90;99.90
4215;DHT22;2121;48.062;7.850;2023-11-21T13:45:49;9.60;99.90
4215;DHT22;2121;48.062;7.850;2023-11-21T13:48:21;9.40;99.90
4215;DHT22;2121;48.062;7.850;2023-11-21T13:50:53;9.30;99.90
4215;DHT22;2121;48.062;7.850;2023-11-21T13:53:38;9.20;99.90
4215;DHT22;2121;48.062;7.850;2023-11-21T13:56:05;9.20;99.90
4215;DHT22;2121;48.062;7.850;2023-11-21T13:58:31;9.20;99.90
4215;DHT22;2121;48.062;7.850;2023-11-21T14:01:10;9.20;99.90
4215;DHT22;2121;48.062;7.850;2023-11-21T14:04:03;9.10;99.90
4215;DHT22;2121;48.062;7.850;2023-11-21T14:06:42;9.00;99.90
4215;DHT22;2121;48.062;7.850;2023-11-21T14:09:16;9.00;99.90
4215;DHT22;2121;48.062;7.850;2023-11-21T14:11:49;8.90;99.90
4215;DHT22;2121;48.062;7.850;2023-11-21T14:14:17;8.80;99.90
4215;DHT22;2121;48.062;7.850;2023-11-21T14:16:44;8.80;99.90
4215;DHT22;2121;48.062;7.850;2023-11-21T14:19:10;8.80;99.90
4215;DHT22;2121;48.062;7.850;2023-11-21T14:21:41;8.80;99.90
4215;DHT22;2121;48.062;7.850;2023-11-21T14:24:14;8.70;99.90
4215;DHT22;2121;48.062;7.850;2023-11-21T14:26:44;8.70;99.90
4215;DHT22;2121;48.062;7.850;2023-11-21T14:29:14;8.70;99.90
4215;DHT22;2121;48.062;7.850;2023-11-21T14:31:48;8.70;99.90
4215;DHT22;2121;48.062;7.850;2023-11-21T14:34:15;8.60;99.90
4215;DHT22;2121;48.062;7.850;2023-11-21T14:36:41;8.70;99.90
4215;DHT22;2121;48.062;7.850;2023-11-21T14:39:08;8.60;99.90
4215;DHT22;2121;48.062;7.850;2023-11-21T14:41:41;8.60;99.90
4215;DHT22;2121;48.062;7.850;2023-11-21T14:44:09;8.60;99.90
4215;DHT22;2121;48.062;7.850;2023-11-21T14:46:37;8.60;99.90
4215;DHT22;2121;48.062;7.850;2023-11-21T14:49:05;8.60;99.90
4215;DHT22;2121;48.062;7.850;2023-11-21T14:51:57;8.60;99.90
4215;DHT22;2121;48.062;7.850;2023-11-21T14:54:29;8.60;99.90
4215;DHT22;2121;48.062;7.850;2023-11-21T14:57:23;8.60;99.90
4215;DHT22;2121;48.062;7.850;2023-11-21T14:59:49;8.50;99.90
4215;DHT22;2121;48.062;7.850;2023-11-21T15:02:23;8.50;99.90
4215;DHT22;2121;48.062;7.850;2023-11-21T15:05:09;8.50;99.90
4215;DHT22;2121;48.062;7.850;2023-11-21T15:07:40;8.50;99.90
4215;DHT22;2121;48.062;7.850;2023-11-21T15:10:07;8.60;99.90
4215;DHT22;2121;48.062;7.850;2023-11-21T15:12:40;8.60;99.90
4215;DHT22;2121;48.062;7.850;2023-11-21T15:15:08;8.60;99.90
4215;DHT22;2121;48.062;7.850;2023-11-21T15:17:36;8.60;99.90
4215;DHT22;2121;48.062;7.850;2023-11-21T15:20:03;8.60;99.90
4215;DHT22;2121;48.062;7.850;2023-11-21T15:22:32;8.50;99.90
4215;DHT22;2121;48.062;7.850;2023-11-21T15:24:58;8.50;99.90
4215;DHT22;2121;48.062;7.850;2023-11-21T15:27:24;8.50;99.90
4215;DHT22;2121;48.062;7.850;2023-11-21T15:29:50;8.60;99.90
4215;DHT22;2121;48.062;7.850;2023-11-21T15:32:16;8.50;99.90
4215;DHT22;2121;48.062;7.850;2023-11-21T15:34:41;8.50;99.90
4215;DHT22;2121;48.062;7.850;2023-11-21T15:37:08;8.50;99.90
4215;DHT22;2121;48.062;7.850;2023-11-21T15:39:37;8.40;99.90
4215;DHT22;2121;48.062;7.850;2023-11-21T15:42:04;8.40;99.90
4215;DHT22;2121;48.062;7.850;2023-11-21T15:44:30;8.30;99.90
4215;DHT22;2121;48.062;7.850;2023-11-21T15:46:58;8.30;99.90
4215;DHT22;2121;48.062;7.850;2023-11-21T15:49:24;8.20;99.90
4215;DHT22;2121;48.062;7.850;2023-11-21T15:51:53;8.20;99.90
4215;DHT22;2121;48.062;7.850;2023-11-21T15:54:20;8.20;99.90
4215;DHT22;2121;48.062;7.850;2023-11-21T15:56:50;8.20;99.90
4215;DHT22;2121;48.062;7.850;2023-11-21T15:59:25;8.20;99.90
4215;DHT22;2121;48.062;7.850;2023-11-21T16:01:59;8.10;99.90
4215;DHT22;2121;48.062;7.850;2023-11-21T16:04:25;8.10;99.90
4215;DHT22;2121;48.062;7.850;2023-11-21T16:06:54;8.10;99.90
4215;DHT22;2121;48.062;7.850;2023-11-21T16:09:20;8.10;99.90
4215;DHT22;2121;48.062;7.850;2023-11-21T16:12:12;8.10;99.90
4215;DHT22;2121;48.062;7.850;2023-11-21T16:14:37;8.10;99.90
4215;DHT22;2121;48.062;7.850;2023-11-21T16:17:15;8.10;99.90
4215;DHT22;2121;48.062;7.850;2023-11-21T16:19:43;8.10;99.90
4215;DHT22;2121;48.062;7.850;2023-11-21T16:22:09;8.10;99.90
4215;DHT22;2121;48.062;7.850;2023-11-21T16:24:36;8.10;99.90
4215;DHT22;2121;48.062;7.850;2023-11-21T16:27:03;8.10;99.90
4215;DHT22;2121;48.062;7.850;2023-11-21T16:29:30;8.00;99.90
4215;DHT22;2121;48.062;7.850;2023-11-21T16:31:59;8.00;99.90
4215;DHT22;2121;48.062;7.850;2023-11-21T16:34:26;8.00;99.90
4215;DHT22;2121;48.062;7.850;2023-11-21T16:36:52;8.00;99.90